Time;durP1;ratioP1;P1;durP2;ratioP2;P2;SDS_P1;SDS_P2;PMS_P1;PMS_P2;Temp;Humidity;BMP_temperature;BMP_pressure;BME280_temperature;BME280_humidity;BME280_pressure;Samples;Min_cycle;Max_cycle;Signal;HPM_P1;HPM_P2
2022/04/29 00:01:43;;;;;;;17.33;6.32;;;;;;;8.93;57.36;103233.38;5191695;28;20411;-51
2022/04/29 00:04:16;;;;;;;15.05;5.82;;;;;;;8.85;57.58;103223.22;5199221;28;20496;-47
2022/04/29 00:06:48;;;;;;;12.45;5.53;;;;;;;8.89;57.60;103237.97;5206260;28;20549;-46
2022/04/29 00:09:22;;;;;;;12.43;5.07;;;;;;;8.89;57.62;103234.47;5207511;28;20433;-47
2022/04/29 00:11:54;;;;;;;16.92;5.70;;;;;;;8.76;57.56;103214.03;5205885;28;20448;-48
2022/04/29 00:14:27;;;;;;;13.18;5.90;;;;;;;8.94;57.57;103224.53;5207193;28;20412;-47
2022/04/29 00:17:00;;;;;;;14.65;5.95;;;;;;;9.00;57.60;103229.47;5204483;28;22443;-47
2022/04/29 00:19:33;;;;;;;12.48;6.00;;;;;;;8.98;57.64;103224.28;5208278;28;20619;-56
2022/04/29 00:22:07;;;;;;;13.15;5.80;;;;;;;8.84;57.47;103223.31;5207048;28;20401;-47
2022/04/29 00:24:40;;;;;;;15.37;5.80;;;;;;;9.04;57.71;103227.53;5202945;28;20420;-49
2022/04/29 00:27:13;;;;;;;19.20;5.97;;;;;;;8.95;57.78;103207.75;5202879;28;20909;-51
2022/04/29 00:29:45;;;;;;;20.15;6.80;;;;;;;9.04;57.71;103224.88;5204789;28;20449;-52
2022/04/29 00:32:18;;;;;;;16.17;5.85;;;;;;;9.03;57.85;103218.75;5203354;28;20785;-50
2022/04/29 00:34:51;;;;;;;17.45;6.18;;;;;;;8.93;58.02;103201.75;5208175;28;20410;-51
2022/04/29 00:37:23;;;;;;;12.13;4.82;;;;;;;8.92;58.04;103202.66;5206586;28;20824;-49
2022/04/29 00:39:57;;;;;;;12.90;5.80;;;;;;;9.00;58.11;103205.75;5205866;28;20436;-50
2022/04/29 00:42:30;;;;;;;11.00;5.67;;;;;;;9.01;58.47;103202.16;5206834;28;22187;-47
2022/04/29 00:45:02;;;;;;;13.30;5.60;;;;;;;8.65;58.20;103144.38;5205902;28;20397;-52
2022/04/29 00:47:35;;;;;;;13.15;6.03;;;;;;;8.97;58.19;103182.19;5205829;28;20514;-50
2022/04/29 00:50:09;;;;;;;13.60;5.20;;;;;;;8.95;58.37;103168.22;5205567;28;20401;-47
2022/04/29 00:52:47;;;;;;;12.40;5.07;;;;;;;9.16;58.20;103198.72;5177581;28;20484;-47
2022/04/29 00:55:23;;;;;;;16.48;4.90;;;;;;;9.16;58.38;103192.59;5203499;28;20746;-51
2022/04/29 00:58:06;;;;;;;12.25;5.13;;;;;;;9.17;58.27;103189.91;5206812;28;20430;-52
2022/04/29 01:00:39;;;;;;;22.15;5.53;;;;;;;9.13;58.37;103185.69;5203958;28;20405;-51
2022/04/29 01:03:13;;;;;;;9.17;4.77;;;;;;;9.21;58.42;103186.16;5205691;28;20486;-51
2022/04/29 01:05:49;;;;;;;14.00;5.78;;;;;;;9.10;58.53;103170.03;5186924;28;20488;-49
2022/04/29 01:08:21;;;;;;;16.25;5.15;;;;;;;9.19;58.42;103203.81;5199613;28;20500;-46
2022/04/29 01:10:56;;;;;;;9.43;5.60;;;;;;;9.06;58.24;103157.97;5204612;28;20433;-48
2022/04/29 01:13:29;;;;;;;10.48;5.55;;;;;;;9.02;58.17;103147.69;5204633;28;20428;-51
2022/04/29 01:16:01;;;;;;;15.53;5.93;;;;;;;9.20;58.24;103200.28;5207159;28;20564;-48
2022/04/29 01:18:34;;;;;;;14.05;5.57;;;;;;;9.21;58.18;103178.22;5198785;28;20447;-48
2022/04/29 01:21:08;;;;;;;17.77;6.50;;;;;;;9.27;58.21;103194.66;5208981;28;20417;-46
2022/04/29 01:23:43;;;;;;;13.83;5.60;;;;;;;9.30;58.30;103178.69;5205754;28;20524;-43
2022/04/29 01:26:16;;;;;;;14.43;5.88;;;;;;;9.22;58.36;103179.94;5206627;28;20421;-47
2022/04/29 01:28:50;;;;;;;12.98;5.47;;;;;;;9.22;58.44;103182.56;5209021;28;20405;-48
2022/04/29 01:31:24;;;;;;;11.43;5.53;;;;;;;9.22;58.48;103171.16;5207550;28;20515;-49
2022/04/29 01:33:57;;;;;;;15.68;6.20;;;;;;;9.13;58.49;103150.56;5207691;28;20421;-48
2022/04/29 01:36:32;;;;;;;17.40;5.60;;;;;;;9.24;58.44;103175.44;5207166;28;20496;-52
2022/04/29 01:39:06;;;;;;;24.08;6.43;;;;;;;9.21;58.46;103161.56;5207856;28;20894;-50
2022/04/29 01:41:38;;;;;;;12.90;5.17;;;;;;;9.31;58.30;103175.94;5192893;28;20945;-48
2022/04/29 01:44:11;;;;;;;17.17;5.75;;;;;;;9.24;58.38;103141.16;5198195;28;20766;-48
2022/04/29 01:46:44;;;;;;;19.25;5.82;;;;;;;9.33;58.24;103162.69;5205014;28;20894;-48
2022/04/29 01:49:16;;;;;;;12.30;5.38;;;;;;;9.07;58.33;103125.41;5205997;28;20421;-51
2022/04/29 01:51:49;;;;;;;25.33;5.85;;;;;;;9.29;58.65;103163.78;5206519;28;20492;-48
2022/04/29 01:54:22;;;;;;;10.75;5.45;;;;;;;9.24;58.50;103164.88;5205304;28;20418;-53
2022/04/29 01:56:55;;;;;;;12.05;5.85;;;;;;;9.16;58.59;103151.25;5205927;28;20416;-49
2022/04/29 01:59:29;;;;;;;18.33;6.43;;;;;;;9.28;58.77;103170.00;5205948;28;20415;-56
2022/04/29 02:02:03;;;;;;;16.45;5.30;;;;;;;8.91;58.41;103114.84;5205437;28;20472;-57
2022/04/29 02:04:36;;;;;;;15.07;6.13;;;;;;;9.31;58.47;103173.31;5206271;28;20417;-55
2022/04/29 02:07:08;;;;;;;17.50;6.13;;;;;;;9.32;58.49;103164.47;5202017;28;20505;-49
2022/04/29 02:09:42;;;;;;;15.55;5.60;;;;;;;9.38;58.39;103171.19;5197289;28;20417;-51
2022/04/29 02:12:15;;;;;;;17.02;5.63;;;;;;;9.32;58.44;103166.25;5202951;28;20900;-48
2022/04/29 02:14:47;;;;;;;18.67;6.70;;;;;;;9.36;58.45;103173.06;5205557;28;20496;-48
2022/04/29 02:17:20;;;;;;;16.60;6.28;;;;;;;9.40;58.49;103180.72;5205912;28;20424;-47
2022/04/29 02:19:52;;;;;;;10.80;5.38;;;;;;;9.41;58.32;103176.28;5204956;28;20412;-48
2022/04/29 02:22:25;;;;;;;23.58;6.20;;;;;;;9.34;58.37;103153.84;5199155;28;20406;-48
2022/04/29 02:24:59;;;;;;;18.02;6.60;;;;;;;9.36;58.45;103151.97;5208623;28;20892;-46
2022/04/29 02:27:31;;;;;;;11.85;6.22;;;;;;;9.43;58.18;103153.31;5204794;28;20409;-48
2022/04/29 02:30:05;;;;;;;19.00;5.40;;;;;;;9.45;58.44;103162.00;5204341;28;20412;-47
2022/04/29 02:32:37;;;;;;;15.82;5.90;;;;;;;9.37;58.31;103148.38;5204884;28;20861;-45
2022/04/29 02:35:10;;;;;;;17.60;6.10;;;;;;;9.37;58.77;103153.66;5182350;28;20415;-48
2022/04/29 02:37:43;;;;;;;14.65;5.40;;;;;;;9.38;58.53;103155.34;5169393;28;20883;-50
2022/04/29 02:40:17;;;;;;;22.13;6.60;;;;;;;9.32;58.82;103145.16;5203586;28;20801;-45
2022/04/29 02:42:49;;;;;;;13.30;5.23;;;;;;;9.21;58.80;103128.13;5205321;28;20448;-47
2022/04/29 02:45:21;;;;;;;16.63;6.15;;;;;;;9.30;58.76;103142.59;5207860;28;20421;-49
2022/04/29 02:47:54;;;;;;;13.85;5.90;;;;;;;9.34;58.64;103143.28;5199722;28;20413;-51
2022/04/29 02:50:27;;;;;;;11.82;4.93;;;;;;;9.12;58.57;103101.44;5204738;28;20468;-50
2022/04/29 02:52:59;;;;;;;15.97;6.60;;;;;;;9.36;58.52;103138.78;5202699;28;20525;-51
2022/04/29 02:55:33;;;;;;;17.70;6.63;;;;;;;9.36;58.66;103146.69;5202644;28;20417;-49
2022/04/29 02:58:06;;;;;;;16.90;7.00;;;;;;;9.37;58.57;103153.66;5204983;28;20919;-51
2022/04/29 03:00:38;;;;;;;17.23;6.18;;;;;;;9.29;58.53;103140.91;5201075;28;20881;-47
2022/04/29 03:03:12;;;;;;;19.35;7.00;;;;;;;9.30;58.70;103147.03;5174325;28;20405;-48
2022/04/29 03:05:44;;;;;;;14.07;6.97;;;;;;;9.29;58.51;103151.47;5206459;28;20409;-49
2022/04/29 03:08:17;;;;;;;12.70;6.85;;;;;;;9.30;58.86;103149.66;5207163;28;20559;-47
2022/04/29 03:10:50;;;;;;;15.93;8.07;;;;;;;9.28;58.47;103140.97;5204581;28;20761;-50
2022/04/29 03:13:23;;;;;;;14.98;7.85;;;;;;;9.29;58.76;103150.59;5204417;28;20504;-50
2022/04/29 03:15:55;;;;;;;21.15;8.40;;;;;;;9.33;58.51;103154.78;5202388;28;20870;-48
2022/04/29 03:18:28;;;;;;;17.80;7.93;;;;;;;9.28;58.73;103139.19;5204173;28;20826;-49
2022/04/29 03:21:00;;;;;;;17.10;8.02;;;;;;;9.33;58.65;103141.59;5199642;28;21011;-51
2022/04/29 03:23:33;;;;;;;12.70;6.78;;;;;;;9.20;58.68;103130.88;5204346;28;20732;-50
2022/04/29 03:26:07;;;;;;;16.35;6.80;;;;;;;9.24;58.82;103138.50;5202211;28;20560;-47
2022/04/29 03:28:40;;;;;;;14.93;5.63;;;;;;;9.34;58.79;103143.28;5199654;28;20441;-50
2022/04/29 03:31:12;;;;;;;16.90;6.20;;;;;;;9.37;58.64;103137.84;5200734;28;20487;-50
2022/04/29 03:33:45;;;;;;;15.27;6.07;;;;;;;9.30;58.55;103124.16;5205447;28;20416;-49
2022/04/29 03:36:17;;;;;;;19.83;6.07;;;;;;;9.41;58.51;103136.72;5183206;28;20423;-50
2022/04/29 03:38:50;;;;;;;14.80;6.53;;;;;;;9.43;58.59;103142.78;5199751;28;20436;-47
2022/04/29 03:41:23;;;;;;;18.65;6.82;;;;;;;9.27;58.59;103110.28;5204094;28;20430;-49
2022/04/29 03:43:56;;;;;;;18.17;6.05;;;;;;;9.38;58.54;103118.44;5202136;28;20957;-48
2022/04/29 03:46:28;;;;;;;14.02;6.15;;;;;;;9.43;58.50;103132.22;5202522;28;20506;-49
2022/04/29 03:51:53;;;;;;;13.65;5.40;;;;;;;9.34;58.95;103122.19;5201646;28;20425;-48
2022/04/29 03:54:26;;;;;;;17.15;5.90;;;;;;;9.29;58.78;103113.66;5204210;28;20428;-48
2022/04/29 03:57:00;;;;;;;13.32;5.80;;;;;;;9.26;58.90;103109.44;5206467;28;20854;-49
2022/04/29 03:59:33;;;;;;;13.57;6.00;;;;;;;9.27;58.74;103115.56;5202660;28;20698;-49
2022/04/29 04:02:07;;;;;;;16.13;6.00;;;;;;;9.22;58.75;103108.72;5205871;28;20422;-47
2022/04/29 04:04:40;;;;;;;15.75;5.60;;;;;;;9.26;58.61;103119.13;5202086;28;20414;-48
2022/04/29 04:07:12;;;;;;;25.35;6.15;;;;;;;9.21;58.95;103108.84;5202693;28;20435;-47
2022/04/29 04:09:44;;;;;;;14.05;6.28;;;;;;;9.19;58.92;103114.19;5209102;28;20398;-49
2022/04/29 04:12:20;;;;;;;13.60;5.28;;;;;;;9.12;58.95;103110.19;5177838;28;20437;-46
2022/04/29 04:14:53;;;;;;;14.43;5.95;;;;;;;9.15;58.97;103110.03;5213715;28;20405;-48
2022/04/29 04:17:25;;;;;;;15.77;6.10;;;;;;;9.14;59.08;103105.69;5208945;28;20415;-48
2022/04/29 04:19:58;;;;;;;16.42;5.97;;;;;;;9.09;58.80;103118.28;5207930;28;20530;-49
2022/04/29 04:22:30;;;;;;;14.70;5.45;;;;;;;9.10;58.80;103109.41;5208031;28;20421;-51
2022/04/29 04:25:05;;;;;;;12.10;5.72;;;;;;;9.12;59.25;103112.81;5207404;28;20485;-52
2022/04/29 04:27:40;;;;;;;20.10;6.13;;;;;;;9.12;59.10;103112.81;5207898;28;20457;-52
2022/04/29 04:30:14;;;;;;;12.95;4.85;;;;;;;9.11;59.00;103116.41;5206352;28;20409;-50
2022/04/29 04:32:46;;;;;;;15.10;5.53;;;;;;;9.13;58.87;103116.31;5211370;28;20413;-47
2022/04/29 04:35:19;;;;;;;13.80;5.40;;;;;;;8.97;58.89;103109.25;5209256;28;20515;-49
2022/04/29 04:37:51;;;;;;;17.40;5.18;;;;;;;9.13;58.95;103113.69;5211474;28;20952;-50
2022/04/29 04:40:24;;;;;;;10.52;4.78;;;;;;;9.16;58.81;103114.34;5200409;28;20692;-47
2022/04/29 04:42:58;;;;;;;15.90;5.13;;;;;;;8.32;58.98;102980.13;5211997;28;20516;-48
2022/04/29 04:45:30;;;;;;;13.95;4.25;;;;;;;9.15;58.92;103123.19;5211507;28;20424;-47
2022/04/29 04:48:03;;;;;;;15.45;4.57;;;;;;;9.18;59.09;103109.84;5212806;28;20410;-50
2022/04/29 04:50:35;;;;;;;13.43;4.65;;;;;;;9.21;59.09;103111.47;5211934;28;20903;-48
2022/04/29 04:53:08;;;;;;;11.57;4.25;;;;;;;9.04;59.08;103091.31;5191809;28;20455;-48
2022/04/29 04:55:41;;;;;;;14.07;5.43;;;;;;;9.09;58.95;103088.44;5203840;28;20417;-49
2022/04/29 04:58:15;;;;;;;19.63;4.97;;;;;;;9.22;59.09;103119.28;5206270;28;20897;-53
2022/04/29 05:00:47;;;;;;;13.95;4.47;;;;;;;9.10;59.08;103109.41;5211568;28;20496;-50
2022/04/29 05:03:20;;;;;;;16.73;4.53;;;;;;;9.26;59.14;103134.94;5200219;28;20419;-48
2022/04/29 05:05:52;;;;;;;18.05;4.50;;;;;;;8.51;59.14;103005.50;5208867;28;20465;-48
2022/04/29 05:08:24;;;;;;;19.75;5.30;;;;;;;9.18;58.96;103112.50;5190044;28;20559;-48
2022/04/29 05:10:57;;;;;;;10.73;3.88;;;;;;;9.33;59.20;103141.59;5191182;28;20960;-50
2022/04/29 05:13:31;;;;;;;21.08;5.28;;;;;;;9.34;59.23;103138.00;5180446;28;20431;-50
2022/04/29 05:16:03;;;;;;;17.08;4.75;;;;;;;9.39;59.12;103130.69;5188762;28;20450;-49
2022/04/29 05:18:37;;;;;;;15.43;5.15;;;;;;;9.46;58.82;103132.06;5186103;28;20442;-48
2022/04/29 05:21:09;;;;;;;14.53;4.60;;;;;;;9.49;59.06;103126.59;5189590;28;20430;-47
2022/04/29 05:23:42;;;;;;;12.32;4.95;;;;;;;9.56;58.97;103125.31;5187168;28;20513;-49
2022/04/29 05:26:14;;;;;;;16.65;4.43;;;;;;;9.57;58.93;103124.38;5183425;28;20425;-50
2022/04/29 05:28:48;;;;;;;14.98;4.60;;;;;;;9.46;58.84;103105.66;5189244;28;20427;-47
2022/04/29 05:31:20;;;;;;;16.48;4.13;;;;;;;9.42;59.02;103102.38;5189481;28;20427;-48
2022/04/29 05:33:53;;;;;;;14.35;4.82;;;;;;;9.77;58.93;103140.88;5187974;28;20423;-48
2022/04/29 05:36:25;;;;;;;12.77;4.00;;;;;;;9.87;58.82;103144.66;5137946;28;20842;-52
2022/04/29 05:44:39;;;;;;;14.32;4.40;;;;;;;9.88;58.97;103143.75;5175986;28;20871;-47
2022/04/29 05:47:12;;;;;;;13.23;4.57;;;;;;;9.84;58.66;103137.75;5180704;28;20473;-49
2022/04/29 05:49:44;;;;;;;18.00;5.32;;;;;;;9.96;58.72;103151.22;5189564;28;21110;-47
2022/04/29 05:52:17;;;;;;;16.20;5.53;;;;;;;10.01;58.50;103147.38;5187409;28;20427;-47
2022/04/29 05:54:49;;;;;;;12.70;4.28;;;;;;;10.01;58.54;103144.72;5187679;28;20806;-51
2022/04/29 05:57:21;;;;;;;14.13;4.87;;;;;;;10.01;58.70;103142.09;5187343;28;20954;-48
2022/04/29 05:59:55;;;;;;;14.52;4.88;;;;;;;9.79;58.56;103109.97;5186365;28;20518;-48
2022/04/29 06:02:28;;;;;;;11.40;4.43;;;;;;;10.05;58.50;103146.25;5176176;28;20435;-48
2022/04/29 06:05:02;;;;;;;12.73;4.88;;;;;;;10.08;58.53;103146.06;5166940;28;20485;-48
2022/04/29 06:07:35;;;;;;;12.73;4.40;;;;;;;10.17;58.34;103152.59;5198717;28;20413;-49
2022/04/29 06:10:09;;;;;;;15.23;4.85;;;;;;;10.16;58.48;103143.81;5205523;28;20753;-48
2022/04/29 06:12:43;;;;;;;14.52;4.75;;;;;;;10.19;58.38;103142.81;5202508;28;20417;-49
2022/04/29 06:15:18;;;;;;;12.53;5.20;;;;;;;10.24;58.16;103143.34;5204384;28;20425;-52
2022/04/29 06:17:54;;;;;;;9.73;4.67;;;;;;;10.24;58.21;103145.16;5207574;28;20460;-50
2022/04/29 06:20:26;;;;;;;8.57;3.90;;;;;;;10.26;58.29;103140.63;5205766;28;20524;-53
2022/04/29 06:22:58;;;;;;;10.27;4.53;;;;;;;10.25;58.24;103144.19;5195666;28;20814;-48
2022/04/29 06:25:31;;;;;;;10.18;4.18;;;;;;;10.27;58.28;103142.38;5193673;28;24126;-50
2022/04/29 06:28:03;;;;;;;13.30;4.93;;;;;;;10.20;58.35;103125.16;5203697;28;20901;-49
2022/04/29 06:30:37;;;;;;;13.82;4.75;;;;;;;10.38;58.24;103139.94;5203638;28;20441;-50
2022/04/29 06:33:10;;;;;;;8.45;4.03;;;;;;;10.46;58.10;103145.59;5204723;28;20424;-49
2022/04/29 06:35:42;;;;;;;11.55;4.28;;;;;;;10.48;57.91;103142.88;5199444;28;20969;-50
2022/04/29 06:38:15;;;;;;;16.70;4.85;;;;;;;10.54;57.84;103140.72;5205096;28;20425;-47
2022/04/29 06:40:47;;;;;;;8.30;4.00;;;;;;;10.50;57.75;103133.91;5188214;28;20979;-53
2022/04/29 06:43:20;;;;;;;13.93;4.03;;;;;;;10.67;57.50;103137.31;5186315;28;20814;-49
2022/04/29 06:45:54;;;;;;;17.88;5.38;;;;;;;10.93;57.35;103146.28;5201671;28;20445;-49
2022/04/29 06:48:27;;;;;;;10.02;3.97;;;;;;;11.04;57.16;103142.00;5188683;28;20576;-52
2022/04/29 06:51:00;;;;;;;11.30;4.67;;;;;;;11.34;57.00;103146.31;5204451;28;20891;-50
2022/04/29 06:53:32;;;;;;;17.00;4.72;;;;;;;11.74;56.71;103146.38;5205954;28;20484;-52
2022/04/29 06:56:06;;;;;;;8.73;3.85;;;;;;;12.00;56.24;103142.88;5192760;28;20926;-49
2022/04/29 06:58:39;;;;;;;12.95;3.53;;;;;;;11.71;56.00;103098.94;5195198;28;20456;-50
2022/04/29 07:01:13;;;;;;;7.53;3.55;;;;;;;11.89;55.98;103133.94;5192982;28;20984;-47
2022/04/29 07:03:45;;;;;;;11.35;3.88;;;;;;;11.85;55.83;103159.78;5193765;28;20565;-49
2022/04/29 07:06:18;;;;;;;8.97;3.73;;;;;;;11.72;56.21;103158.84;5195934;28;20566;-52
2022/04/29 07:08:50;;;;;;;15.68;3.70;;;;;;;11.62;55.89;103163.91;5202275;28;20468;-50
2022/04/29 07:11:25;;;;;;;10.70;4.63;;;;;;;11.53;55.98;103173.28;5198060;28;20425;-49
2022/04/29 07:13:57;;;;;;;7.72;4.07;;;;;;;11.44;55.88;103176.53;5198878;28;20452;-53
2022/04/29 07:16:31;;;;;;;15.32;4.60;;;;;;;11.28;55.87;103159.94;5197545;28;20504;-52
2022/04/29 07:19:03;;;;;;;11.43;4.57;;;;;;;11.28;55.85;103159.94;5198550;28;20402;-51
2022/04/29 07:21:36;;;;;;;17.93;4.97;;;;;;;11.35;55.75;103166.53;5198935;28;20420;-50
2022/04/29 07:24:09;;;;;;;9.10;3.58;;;;;;;11.39;55.49;103167.19;5188486;28;20409;-50
2022/04/29 07:26:41;;;;;;;15.60;5.15;;;;;;;10.70;55.62;103071.91;5196071;28;20413;-46
2022/04/29 07:29:14;;;;;;;10.00;4.20;;;;;;;11.23;55.61;103160.22;5195507;28;20432;-52
2022/04/29 07:31:50;;;;;;;12.77;4.75;;;;;;;11.13;55.53;103150.31;5198084;28;20772;-53
2022/04/29 07:41:44;;;;;;;8.00;3.88;;;;;;;11.14;55.70;103158.16;5198842;28;20471;-50
2022/04/29 07:43:03;;;;;;;11.93;3.80;;;;;;;11.05;55.33;103121.69;5193216;28;20899;-51
2022/04/29 07:45:37;;;;;;;11.43;4.65;;;;;;;11.25;55.34;103165.41;5196614;28;20892;-47
2022/04/29 07:48:11;;;;;;;9.35;3.83;;;;;;;11.16;55.22;103163.34;5195643;28;20451;-50
2022/04/29 07:50:44;;;;;;;12.85;4.55;;;;;;;11.26;55.14;103172.41;5194206;28;20413;-50
2022/04/29 07:53:17;;;;;;;7.45;4.03;;;;;;;11.31;55.06;103178.25;5200184;28;20870;-49
2022/04/29 07:55:49;;;;;;;9.10;3.92;;;;;;;11.22;55.08;103173.56;5196476;28;20780;-52
2022/04/29 07:58:22;;;;;;;6.75;3.63;;;;;;;10.82;55.15;103113.44;5197497;28;20406;-50
2022/04/29 08:00:55;;;;;;;11.57;4.22;;;;;;;11.04;55.10;103163.16;5196673;28;20483;-49
2022/04/29 08:03:29;;;;;;;10.43;3.27;;;;;;;10.96;55.32;103160.16;5184943;28;20599;-52
2022/04/29 08:06:02;;;;;;;12.02;4.20;;;;;;;10.94;55.44;103167.34;5159544;28;20700;-51
2022/04/29 08:08:37;;;;;;;11.00;3.67;;;;;;;10.92;55.39;103174.50;5151893;28;20424;-52
2022/04/29 08:11:14;;;;;;;11.55;3.55;;;;;;;10.92;55.30;103169.22;5164244;28;20883;-50
2022/04/29 08:13:47;;;;;;;7.70;3.63;;;;;;;10.93;55.34;103170.94;5173342;28;20493;-52
2022/04/29 08:16:19;;;;;;;8.63;4.10;;;;;;;10.98;55.17;103174.13;5181127;28;20494;-50
2022/04/29 08:18:53;;;;;;;7.97;3.42;;;;;;;11.12;55.09;103175.94;5178273;28;20423;-52
2022/04/29 08:21:25;;;;;;;10.05;3.42;;;;;;;11.13;55.17;103176.78;5177124;28;20503;-52
2022/04/29 08:23:58;;;;;;;13.88;4.00;;;;;;;11.02;55.19;103170.34;5178074;28;20415;-51
2022/04/29 08:26:31;;;;;;;9.80;4.03;;;;;;;10.96;55.25;103176.03;5178802;28;20433;-54
2022/04/29 08:29:03;;;;;;;6.13;4.03;;;;;;;11.00;55.22;103169.59;5180025;28;20511;-50
2022/04/29 08:31:36;;;;;;;16.25;3.88;;;;;;;11.00;54.86;103127.28;5179543;28;20411;-49
2022/04/29 08:34:10;;;;;;;14.75;3.83;;;;;;;11.43;54.82;103180.13;5178613;28;20445;-49
2022/04/29 08:36:43;;;;;;;10.48;3.15;;;;;;;11.51;54.58;103172.53;5174581;28;20914;-49
2022/04/29 08:39:15;;;;;;;7.70;3.40;;;;;;;11.41;54.55;103147.63;5177432;28;20427;-51
2022/04/29 08:41:49;;;;;;;8.00;3.63;;;;;;;11.61;54.56;103183.38;5162575;28;20435;-51
2022/04/29 08:44:23;;;;;;;8.25;3.50;;;;;;;11.72;54.35;103185.34;5173287;28;20516;-50
2022/04/29 08:46:55;;;;;;;7.32;3.63;;;;;;;11.74;54.29;103178.16;5175148;28;20789;-52
2022/04/29 08:49:32;;;;;;;11.37;3.80;;;;;;;11.71;54.24;103184.50;5182387;28;20468;-51
2022/04/29 08:52:06;;;;;;;9.05;3.75;;;;;;;11.69;54.25;103174.94;5179493;28;20875;-50
2022/04/29 09:00:20;;;;;;;7.28;3.70;;;;;;;11.58;54.29;103185.38;5174241;28;20947;-50
2022/04/29 09:02:53;;;;;;;8.02;4.20;;;;;;;11.62;54.11;103186.88;5179043;28;20910;-54
2022/04/29 09:05:28;;;;;;;8.15;4.53;;;;;;;11.77;54.13;103188.53;5178815;28;21195;-51
2022/04/29 09:08:04;;;;;;;6.85;4.03;;;;;;;11.49;53.75;103134.75;5203095;28;20445;-53
2022/04/29 09:10:38;;;;;;;9.45;4.05;;;;;;;11.66;53.78;103180.44;5203163;28;20785;-52
2022/04/29 09:13:15;;;;;;;15.05;4.40;;;;;;;11.50;53.99;103154.97;5203909;28;20850;-54
2022/04/29 09:15:50;;;;;;;11.43;4.30;;;;;;;11.62;53.97;103189.53;5201160;28;20445;-50
2022/04/29 09:18:34;;;;;;;9.43;4.00;;;;;;;11.58;53.91;103177.44;5203008;28;21001;-52
2022/04/29 09:21:09;;;;;;;8.77;3.83;;;;;;;11.55;53.86;103178.47;5203412;28;20413;-50
2022/04/29 09:23:44;;;;;;;10.85;4.13;;;;;;;11.61;53.95;103172.78;5201344;28;20450;-51
2022/04/29 09:26:25;;;;;;;9.43;3.67;;;;;;;11.72;53.65;103180.03;5207726;28;20807;-49
2022/04/29 09:29:12;;;;;;;10.60;3.53;;;;;;;11.74;53.56;103175.50;5204822;28;20504;-48
2022/04/29 09:31:53;;;;;;;6.80;3.13;;;;;;;11.90;53.09;103172.72;5201722;28;20597;-53
2022/04/29 09:34:43;;;;;;;6.43;2.90;;;;;;;11.76;53.50;103160.34;5205562;28;20430;-49
2022/04/29 09:37:21;;;;;;;7.72;3.28;;;;;;;11.84;53.55;103175.75;5200992;28;20518;-53
2022/04/29 09:39:54;;;;;;;9.03;3.43;;;;;;;11.67;53.36;103142.41;5192168;28;20980;-50
2022/04/29 09:42:38;;;;;;;7.63;3.40;;;;;;;11.24;53.23;103068.47;5204569;28;20436;-50
2022/04/29 09:45:14;;;;;;;6.10;3.07;;;;;;;11.90;53.39;103189.47;5202933;28;20793;-51
2022/04/29 09:47:53;;;;;;;11.43;3.28;;;;;;;11.88;53.09;103178.09;5200067;28;20547;-51
2022/04/29 09:50:46;;;;;;;5.13;2.65;;;;;;;11.77;52.97;103140.88;5203408;28;20834;-50
2022/04/29 09:53:23;;;;;;;4.22;2.42;;;;;;;12.13;52.79;103195.03;5198686;28;20424;-50
2022/04/29 09:56:11;;;;;;;16.35;5.90;;;;;;;12.12;52.65;103182.75;5202284;28;20482;-51
2022/04/29 09:58:44;;;;;;;6.40;3.00;;;;;;;12.22;52.55;103167.91;5201373;28;20496;-54
2022/04/29 10:01:18;;;;;;;6.10;3.00;;;;;;;12.25;52.43;103172.16;5202893;28;20515;-50
2022/04/29 10:03:50;;;;;;;5.05;2.83;;;;;;;12.21;52.32;103182.13;5200326;28;20820;-48
2022/04/29 10:06:24;;;;;;;13.70;3.25;;;;;;;12.35;52.19;103182.03;5202150;28;20440;-52
2022/04/29 10:09:16;;;;;;;6.60;3.13;;;;;;;12.55;52.02;103177.19;5188885;28;20536;-50
2022/04/29 10:11:50;;;;;;;9.07;3.88;;;;;;;12.68;51.68;103178.03;5189777;28;20879;-52
2022/04/29 10:14:22;;;;;;;14.35;5.03;;;;;;;12.74;51.60;103158.19;5193691;28;20413;-50
2022/04/29 10:22:51;;;;;;;6.72;3.72;;;;;;;12.98;51.30;103169.72;5190170;28;20972;-56
2022/04/29 10:25:30;;;;;;;12.57;4.07;;;;;;;13.11;51.00;103167.06;5194687;28;20429;-56
2022/04/29 10:28:03;;;;;;;8.18;3.75;;;;;;;13.17;50.92;103153.34;5174517;28;20872;-53
2022/04/29 10:30:40;;;;;;;11.07;4.22;;;;;;;13.23;50.98;103175.94;5176600;28;20969;-54
2022/04/29 10:33:22;;;;;;;9.25;4.30;;;;;;;13.11;51.03;103167.91;5195952;28;20436;-49
2022/04/29 10:35:56;;;;;;;8.23;4.10;;;;;;;13.14;51.04;103172.16;5193545;28;20434;-52
2022/04/29 10:38:32;;;;;;;7.18;3.90;;;;;;;13.12;50.88;103163.44;5193355;28;20425;-51
2022/04/29 10:41:18;;;;;;;9.70;4.55;;;;;;;13.07;50.97;103157.63;5193340;28;20791;-54
2022/04/29 10:44:07;;;;;;;10.63;4.30;;;;;;;12.97;50.94;103135.34;5194079;28;20516;-53
2022/04/29 10:46:41;;;;;;;7.13;4.30;;;;;;;13.00;50.99;103159.00;5195411;28;20974;-49
2022/04/29 10:49:31;;;;;;;8.93;4.30;;;;;;;12.93;50.93;103175.34;5193738;28;20418;-51
2022/04/29 10:52:04;;;;;;;13.07;4.57;;;;;;;12.90;50.76;103157.00;5193765;28;20818;-50
2022/04/29 10:54:45;;;;;;;8.55;4.95;;;;;;;12.98;50.47;103135.25;5170313;28;20438;-50
2022/04/29 10:57:19;;;;;;;7.75;4.10;;;;;;;13.00;50.64;103143.09;5174236;28;20838;-52
2022/04/29 10:59:57;;;;;;;11.65;4.43;;;;;;;13.00;50.50;103133.31;5191949;28;20454;-52
2022/04/29 11:02:34;;;;;;;6.68;4.07;;;;;;;13.16;50.41;103154.28;5187472;28;22162;-52
2022/04/29 11:05:27;;;;;;;9.27;5.00;;;;;;;13.15;50.37;103153.44;5176908;28;20485;-48
2022/04/29 11:08:07;;;;;;;12.80;5.53;;;;;;;13.18;50.46;103156.84;5183343;28;20911;-51
2022/04/29 11:10:57;;;;;;;9.10;5.00;;;;;;;13.13;50.40;103158.03;5190115;28;21101;-50
2022/04/29 11:13:34;;;;;;;11.52;4.43;;;;;;;13.07;50.47;103154.97;5190681;28;20427;-52
2022/04/29 11:16:16;;;;;;;11.35;4.90;;;;;;;13.14;50.33;103157.06;5163109;28;20410;-50
2022/04/29 11:19:22;;;;;;;9.73;4.68;;;;;;;13.19;50.31;103170.00;5188151;28;20771;-51
2022/04/29 11:24:53;;;;;;;5.78;4.30;;;;;;;13.15;50.05;103161.41;5125511;28;20419;-51
2022/04/29 11:27:27;;;;;;;6.50;4.30;;;;;;;13.42;50.01;103157.75;5182083;28;21526;-53
2022/04/29 11:30:02;;;;;;;6.53;3.92;;;;;;;13.61;49.90;103160.75;5185980;28;20542;-53
2022/04/29 11:32:40;;;;;;;7.10;3.92;;;;;;;13.52;49.88;103161.44;5188808;28;20427;-53
2022/04/29 11:35:12;;;;;;;11.20;4.05;;;;;;;13.44;49.91;103154.97;5156630;28;20560;-46
2022/04/29 11:37:48;;;;;;;8.23;3.90;;;;;;;13.34;49.87;103155.66;5184457;28;20418;-53
2022/04/29 11:40:20;;;;;;;12.07;4.15;;;;;;;13.39;49.76;103155.34;5191862;28;20889;-50
2022/04/29 11:42:53;;;;;;;10.23;4.30;;;;;;;13.44;49.84;103152.31;5190047;28;20511;-52
2022/04/29 11:45:30;;;;;;;10.98;4.10;;;;;;;12.79;49.55;103064.13;5190188;28;21083;-52
2022/04/29 11:48:07;;;;;;;10.50;4.03;;;;;;;13.58;49.48;103160.97;5191845;28;22715;-53
2022/04/29 11:50:39;;;;;;;7.70;3.60;;;;;;;13.56;49.35;103148.78;5186155;28;20628;-49
2022/04/29 11:53:13;;;;;;;5.72;4.00;;;;;;;13.36;49.47;103121.91;5188751;28;20759;-50
2022/04/29 11:55:51;;;;;;;7.72;3.78;;;;;;;13.53;49.31;103154.31;5186863;28;20842;-52
2022/04/29 11:58:28;;;;;;;17.67;4.05;;;;;;;13.24;49.35;103100.69;5195027;28;20797;-51
2022/04/29 12:01:02;;;;;;;9.05;4.05;;;;;;;13.50;49.30;103141.25;5200006;28;20419;-51
2022/04/29 12:03:34;;;;;;;10.07;4.20;;;;;;;13.51;49.39;103150.94;5193738;28;20543;-48
2022/04/29 12:06:07;;;;;;;8.60;3.45;;;;;;;13.57;49.37;103142.53;5194376;28;20643;-48
2022/04/29 12:08:40;;;;;;;5.53;3.38;;;;;;;13.68;49.18;103139.06;5193727;28;20564;-51
2022/04/29 12:11:22;;;;;;;7.77;3.43;;;;;;;13.80;49.01;103144.31;5191495;28;20504;-52
2022/04/29 12:13:54;;;;;;;8.50;3.90;;;;;;;13.87;48.92;103138.53;5194619;28;20913;-50
2022/04/29 12:16:28;;;;;;;8.50;3.67;;;;;;;14.01;48.79;103146.31;5197053;28;20421;-49
2022/04/29 12:19:14;;;;;;;8.75;4.18;;;;;;;14.21;48.58;103148.28;5193332;28;20417;-48
2022/04/29 12:21:55;;;;;;;8.55;3.75;;;;;;;14.06;48.53;103125.56;5190148;28;20497;-52
2022/04/29 12:24:41;;;;;;;15.55;4.47;;;;;;;14.24;48.59;103141.91;5207526;28;20417;-48
2022/04/29 12:27:14;;;;;;;6.63;3.85;;;;;;;14.25;48.36;103141.81;5204069;28;20413;-50